createdAt,value
2022-10-26T00:00:42.740Z,51.50
2022-10-26T00:03:09.331Z,51.70
2022-10-26T00:05:35.962Z,51.50
2022-10-26T00:08:02.616Z,51.70
2022-10-26T00:10:31.531Z,51.80
2022-10-26T00:12:58.506Z,51.80
2022-10-26T00:15:25.080Z,51.80
2022-10-26T00:17:51.810Z,52.40
2022-10-26T00:20:18.627Z,51.70
2022-10-26T00:22:45.178Z,51.80
2022-10-26T00:25:11.819Z,51.80
2022-10-26T00:27:38.407Z,51.80
2022-10-26T00:30:05.428Z,51.80
2022-10-26T00:32:32.155Z,52.40
2022-10-26T00:35:06.106Z,51.70
2022-10-26T00:37:42.943Z,51.80
2022-10-26T00:40:09.757Z,51.80
2022-10-26T00:42:36.342Z,51.70
2022-10-26T00:45:23.211Z,51.70
2022-10-26T00:47:58.921Z,51.70
2022-10-26T00:50:32.841Z,51.70
2022-10-26T00:52:59.829Z,51.60
2022-10-26T00:55:27.205Z,51.70
2022-10-26T00:57:53.774Z,51.60
2022-10-26T01:00:20.406Z,51.60
2022-10-26T01:02:47.310Z,51.60
2022-10-26T01:05:14.143Z,51.60
2022-10-26T01:07:41.464Z,51.60
2022-10-26T01:10:08.375Z,51.60
2022-10-26T01:12:34.937Z,51.80
2022-10-26T01:15:01.515Z,51.80
2022-10-26T01:17:43.436Z,51.90
2022-10-26T01:20:28.839Z,51.40
2022-10-26T01:23:01.654Z,51.10
2022-10-26T01:25:40.244Z,50.80
2022-10-26T01:28:08.259Z,50.80
2022-10-26T01:30:39.186Z,50.80
2022-10-26T01:33:05.827Z,51.00
2022-10-26T01:35:38.172Z,51.10
2022-10-26T01:38:06.266Z,51.20
2022-10-26T01:40:53.088Z,51.20
2022-10-26T01:43:19.647Z,51.10
2022-10-26T01:45:46.696Z,51.20
2022-10-26T01:48:13.651Z,51.20
2022-10-26T01:50:40.617Z,51.20
2022-10-26T01:53:07.167Z,51.40
2022-10-26T01:55:39.863Z,51.40
2022-10-26T01:58:15.647Z,51.40
2022-10-26T02:00:42.751Z,51.40
2022-10-26T02:03:09.298Z,51.40
2022-10-26T02:05:35.865Z,51.50
2022-10-26T02:08:06.202Z,51.70
2022-10-26T02:10:32.714Z,51.70
2022-10-26T02:12:59.263Z,51.80
2022-10-26T02:15:27.657Z,51.70
2022-10-26T02:17:56.801Z,51.70
2022-10-26T02:20:25.142Z,51.70
2022-10-26T02:22:51.698Z,51.70
2022-10-26T02:25:23.222Z,51.70
2022-10-26T02:27:51.410Z,51.60
2022-10-26T02:30:18.229Z,51.60
2022-10-26T02:32:45.408Z,51.60
2022-10-26T02:35:12.119Z,51.60
2022-10-26T02:37:38.686Z,51.60
2022-10-26T02:40:06.676Z,51.60
2022-10-26T02:42:33.269Z,51.60
2022-10-26T02:45:00.727Z,51.70
2022-10-26T02:47:27.343Z,51.60
2022-10-26T02:49:54.014Z,51.60
2022-10-26T02:52:26.671Z,51.60
2022-10-26T02:55:00.501Z,51.60
2022-10-26T02:57:32.433Z,51.60
2022-10-26T02:59:59.021Z,51.60
2022-10-26T03:02:25.719Z,51.60
2022-10-26T03:04:52.271Z,51.60
2022-10-26T03:07:22.663Z,51.70
2022-10-26T03:09:49.258Z,51.40
2022-10-26T03:12:15.838Z,51.10
2022-10-26T03:14:42.388Z,50.90
2022-10-26T03:17:08.942Z,50.60
2022-10-26T03:19:35.520Z,51.10
2022-10-26T03:22:02.080Z,50.50
2022-10-26T03:24:28.640Z,50.70
2022-10-26T03:26:57.126Z,50.80
2022-10-26T03:29:26.256Z,50.70
2022-10-26T03:31:54.534Z,50.90
2022-10-26T03:34:21.280Z,50.90
2022-10-26T03:36:47.996Z,50.90
2022-10-26T03:39:14.584Z,51.20
2022-10-26T03:41:41.262Z,51.10
2022-10-26T03:44:07.899Z,51.10
2022-10-26T03:46:34.444Z,51.40
2022-10-26T03:49:00.988Z,51.20
2022-10-26T03:51:28.147Z,51.40
2022-10-26T03:53:54.747Z,51.50
2022-10-26T03:56:21.370Z,51.70
2022-10-26T03:58:47.967Z,51.70
2022-10-26T04:01:15.673Z,51.70
2022-10-26T04:03:42.338Z,51.70
2022-10-26T04:06:08.878Z,51.70
2022-10-26T04:08:35.450Z,51.70
2022-10-26T04:11:03.931Z,52.10
2022-10-26T04:13:31.420Z,52.00
2022-10-26T04:15:58.056Z,52.00
2022-10-26T04:18:24.609Z,52.00
2022-10-26T04:20:51.206Z,52.10
2022-10-26T04:23:18.119Z,52.20
2022-10-26T04:25:44.823Z,52.20
2022-10-26T04:28:11.871Z,52.90
2022-10-26T04:30:38.425Z,52.30
2022-10-26T04:33:05.154Z,52.30
2022-10-26T04:35:31.797Z,52.40
2022-10-26T04:37:59.132Z,52.40
2022-10-26T04:40:25.779Z,52.50
2022-10-26T04:42:52.740Z,52.40
2022-10-26T04:45:19.692Z,52.60
2022-10-26T04:47:46.247Z,52.50
2022-10-26T04:50:13.154Z,53.10
2022-10-26T04:52:40.198Z,52.60
2022-10-26T04:55:06.975Z,52.60
2022-10-26T04:57:33.724Z,52.60
2022-10-26T05:00:00.636Z,52.60
2022-10-26T05:02:30.406Z,52.70
2022-10-26T05:04:57.150Z,52.30
2022-10-26T05:07:23.826Z,53.30
2022-10-26T05:09:50.396Z,53.10
2022-10-26T05:12:17.032Z,52.90
2022-10-26T05:14:43.588Z,52.80
2022-10-26T05:17:10.163Z,52.60
2022-10-26T05:19:36.704Z,52.20
2022-10-26T05:22:03.305Z,52.20
2022-10-26T05:24:29.907Z,52.10
2022-10-26T05:26:56.535Z,52.10
2022-10-26T05:29:23.091Z,52.00
2022-10-26T05:31:49.660Z,52.00
2022-10-26T05:34:16.208Z,52.00
2022-10-26T05:36:42.763Z,52.00
2022-10-26T05:39:09.809Z,52.00
2022-10-26T05:41:36.388Z,52.00
2022-10-26T05:44:02.997Z,52.10
2022-10-26T05:46:29.585Z,52.20
2022-10-26T05:48:56.233Z,52.20
2022-10-26T05:51:22.787Z,52.30
2022-10-26T05:53:51.112Z,52.30
2022-10-26T05:56:21.401Z,52.40
2022-10-26T05:58:48.109Z,52.40
2022-10-26T06:01:41.137Z,52.40
2022-10-26T06:04:14.523Z,52.50
2022-10-26T06:06:44.836Z,52.40
2022-10-26T06:09:11.644Z,52.40
2022-10-26T06:11:38.400Z,52.40
2022-10-26T06:14:05.088Z,52.50
2022-10-26T06:16:38.371Z,52.50
2022-10-26T06:19:14.076Z,52.50
2022-10-26T06:22:13.056Z,52.50
2022-10-26T06:24:43.922Z,52.60
2022-10-26T06:27:17.051Z,52.50
2022-10-26T06:29:50.307Z,52.50
2022-10-26T06:32:16.855Z,52.50
2022-10-26T06:34:44.261Z,52.40
2022-10-26T06:37:10.809Z,52.50
2022-10-26T06:39:38.204Z,52.50
2022-10-26T06:42:04.952Z,52.60
2022-10-26T06:44:31.667Z,52.40
2022-10-26T06:47:08.676Z,52.50
2022-10-26T06:49:36.594Z,52.50
2022-10-26T06:52:14.077Z,52.50
2022-10-26T06:54:48.338Z,52.60
2022-10-26T06:57:15.430Z,52.70
2022-10-26T06:59:48.146Z,52.60
2022-10-26T07:02:15.106Z,52.50
2022-10-26T07:04:42.250Z,52.30
2022-10-26T07:07:12.620Z,52.00
2022-10-26T07:09:39.190Z,52.00
2022-10-26T07:12:05.763Z,51.80
2022-10-26T07:14:34.766Z,51.60
2022-10-26T07:17:01.373Z,51.50
2022-10-26T07:19:27.938Z,51.50
2022-10-26T07:21:59.187Z,51.60
2022-10-26T07:24:26.149Z,51.70
2022-10-26T07:26:55.812Z,51.80
2022-10-26T07:29:33.042Z,51.90
2022-10-26T07:31:59.676Z,51.90
2022-10-26T07:34:26.287Z,51.90
2022-10-26T07:36:52.833Z,51.80
2022-10-26T07:39:19.387Z,51.80
2022-10-26T07:41:46.325Z,51.80
2022-10-26T07:44:12.878Z,51.80
2022-10-26T07:46:39.443Z,51.90
2022-10-26T07:49:05.992Z,52.00
2022-10-26T07:51:32.548Z,52.00
2022-10-26T07:53:59.145Z,52.10
2022-10-26T07:56:25.906Z,52.20
2022-10-26T07:58:53.140Z,52.20
2022-10-26T08:01:19.834Z,52.10
2022-10-26T08:03:46.660Z,52.20
2022-10-26T08:06:13.242Z,52.20
2022-10-26T08:08:43.512Z,52.30
2022-10-26T08:11:13.159Z,52.20
2022-10-26T08:13:39.804Z,52.20
2022-10-26T08:16:06.630Z,52.30
2022-10-26T08:18:33.182Z,52.30
2022-10-26T08:21:11.719Z,52.20
2022-10-26T08:23:40.141Z,52.30
2022-10-26T08:26:06.839Z,52.30
2022-10-26T08:28:33.392Z,52.20
2022-10-26T08:30:59.962Z,52.30
2022-10-26T08:33:26.560Z,52.20
2022-10-26T08:35:56.483Z,52.30
2022-10-26T08:38:23.033Z,52.20
2022-10-26T08:40:49.608Z,52.30
2022-10-26T08:43:27.039Z,52.30
2022-10-26T08:45:56.755Z,52.30
2022-10-26T08:48:30.785Z,52.30
2022-10-26T08:50:59.421Z,53.10
2022-10-26T08:53:39.714Z,52.20
2022-10-26T08:56:07.044Z,51.90
2022-10-26T08:58:37.860Z,52.00
2022-10-26T09:01:05.449Z,52.30
2022-10-26T09:03:33.762Z,51.40
2022-10-26T09:06:07.535Z,51.40
2022-10-26T09:08:37.643Z,51.20
2022-10-26T09:11:07.582Z,51.40
2022-10-26T09:13:43.345Z,51.40
2022-10-26T09:16:24.926Z,51.60
2022-10-26T09:18:51.597Z,51.70
2022-10-26T09:21:21.044Z,51.80
2022-10-26T09:23:56.740Z,51.80
2022-10-26T09:26:26.137Z,51.90
2022-10-26T09:28:52.688Z,51.80
2022-10-26T09:31:20.618Z,51.80
2022-10-26T09:33:47.176Z,51.80
2022-10-26T09:36:18.329Z,51.80
2022-10-26T09:38:47.481Z,51.80
2022-10-26T09:41:31.635Z,51.80
2022-10-26T09:44:06.384Z,51.80
2022-10-26T09:46:51.944Z,51.90
2022-10-26T09:49:18.511Z,52.00
2022-10-26T09:51:46.321Z,52.00
2022-10-26T09:54:17.141Z,52.10
2022-10-26T09:56:44.302Z,52.10
2022-10-26T09:59:10.869Z,52.10
2022-10-26T10:01:40.205Z,52.10
2022-10-26T10:04:11.078Z,52.10
2022-10-26T10:06:37.639Z,52.20
2022-10-26T10:09:05.206Z,52.20
2022-10-26T10:11:41.682Z,52.20
2022-10-26T10:14:08.746Z,52.20
2022-10-26T10:16:35.336Z,52.20
2022-10-26T10:19:01.875Z,52.20
2022-10-26T10:21:38.520Z,52.20
2022-10-26T10:24:24.206Z,51.90
2022-10-26T10:26:57.866Z,52.00
2022-10-26T10:29:45.767Z,52.20
2022-10-26T10:32:16.099Z,51.40
2022-10-26T10:34:42.755Z,51.30
2022-10-26T10:37:27.931Z,51.40
2022-10-26T10:40:01.873Z,51.40
2022-10-26T10:42:31.896Z,51.50
2022-10-26T10:44:58.473Z,51.60
2022-10-26T10:47:25.957Z,51.50
2022-10-26T10:50:00.128Z,51.70
2022-10-26T10:52:35.749Z,51.70
2022-10-26T10:55:02.327Z,51.90
2022-10-26T10:57:51.576Z,51.90
2022-10-26T11:00:18.836Z,51.80
2022-10-26T11:02:58.463Z,51.80
2022-10-26T11:05:37.412Z,51.80
2022-10-26T11:08:04.017Z,51.80
2022-10-26T11:10:33.090Z,51.80
2022-10-26T11:13:00.948Z,51.80
2022-10-26T11:15:28.268Z,51.80
2022-10-26T11:18:07.523Z,51.90
2022-10-26T11:20:35.425Z,52.00
2022-10-26T11:25:55.419Z,52.00
2022-10-26T11:28:42.986Z,52.10
2022-10-26T11:31:14.261Z,52.20
2022-10-26T11:33:41.842Z,52.00
2022-10-26T11:36:09.417Z,52.00
2022-10-26T11:38:46.178Z,51.80
2022-10-26T11:41:25.115Z,51.50
2022-10-26T11:44:06.073Z,51.40
2022-10-26T11:46:34.583Z,51.40
2022-10-26T11:49:01.179Z,51.50
2022-10-26T11:51:30.756Z,51.50
2022-10-26T11:53:58.060Z,51.50
2022-10-26T11:56:31.245Z,51.70
2022-10-26T11:58:59.305Z,51.70
2022-10-26T12:01:25.995Z,51.70
2022-10-26T12:03:53.060Z,51.90
2022-10-26T12:06:20.632Z,52.00
2022-10-26T12:09:19.741Z,51.90
2022-10-26T12:11:53.717Z,51.80
2022-10-26T12:14:28.636Z,51.90
2022-10-26T13:35:19.248Z,51.90
2022-10-26T13:37:47.459Z,52.00
2022-10-26T13:40:16.711Z,52.10
2022-10-26T13:42:44.942Z,52.00
2022-10-26T13:45:21.476Z,51.90
2022-10-26T13:47:48.732Z,52.00
2022-10-26T13:50:19.851Z,51.90
2022-10-26T13:52:53.414Z,51.70
2022-10-26T13:55:30.954Z,51.50
2022-10-26T13:57:57.491Z,51.40
2022-10-26T14:00:24.933Z,51.40
2022-10-26T14:02:51.758Z,51.50
2022-10-26T14:05:18.687Z,51.50
2022-10-26T14:07:57.807Z,51.60
2022-10-26T14:10:28.327Z,51.70
2022-10-26T14:12:54.988Z,51.70
2022-10-26T14:15:25.184Z,51.80
2022-10-26T14:17:52.420Z,52.00
2022-10-26T14:20:19.753Z,52.00
2022-10-26T14:22:46.313Z,52.00
2022-10-26T14:25:23.517Z,51.90
2022-10-26T14:27:57.908Z,51.90
2022-10-26T14:30:25.679Z,51.90
2022-10-26T14:32:52.577Z,51.90
2022-10-26T14:35:21.450Z,51.90
2022-10-26T14:37:54.532Z,51.90
2022-10-26T14:40:25.373Z,52.20
2022-10-26T14:42:54.091Z,52.90
2022-10-26T14:45:29.886Z,52.30
2022-10-26T14:48:15.179Z,52.50
2022-10-26T14:50:45.055Z,52.00
2022-10-26T14:53:14.750Z,52.20
2022-10-26T14:55:50.522Z,52.20
2022-10-26T14:58:24.179Z,52.00
2022-10-26T15:01:12.381Z,51.60
2022-10-26T15:03:41.762Z,51.80
2022-10-26T15:06:27.412Z,51.80
2022-10-26T15:08:58.045Z,51.90
2022-10-26T15:11:24.922Z,52.10
2022-10-26T15:13:51.542Z,52.10
2022-10-26T15:16:19.030Z,52.00
2022-10-26T15:18:45.922Z,52.00
2022-10-26T15:21:24.750Z,52.10
2022-10-26T15:23:51.558Z,53.00
2022-10-26T15:26:18.136Z,52.40
2022-10-26T15:28:44.850Z,52.60
2022-10-26T15:31:11.450Z,52.50
2022-10-26T15:33:41.083Z,52.70
2022-10-26T15:36:07.719Z,52.70
2022-10-26T15:38:37.362Z,52.70
2022-10-26T15:41:04.312Z,52.80
2022-10-26T15:43:30.874Z,52.80
2022-10-26T15:45:57.451Z,52.90
2022-10-26T15:48:25.678Z,53.00
2022-10-26T15:50:52.425Z,52.90
2022-10-26T15:53:20.238Z,53.10
2022-10-26T15:55:47.407Z,53.00
2022-10-26T15:58:15.956Z,53.00
2022-10-26T16:00:42.713Z,53.40
2022-10-26T16:03:16.252Z,52.60
2022-10-26T16:05:42.829Z,52.40
2022-10-26T16:08:17.025Z,52.70
2022-10-26T16:10:44.858Z,52.30
2022-10-26T16:13:14.746Z,52.30
2022-10-26T16:15:41.524Z,52.50
2022-10-26T16:18:08.100Z,52.60
2022-10-26T16:20:34.737Z,52.70
2022-10-26T16:23:06.523Z,52.70
2022-10-26T16:25:40.631Z,52.80
2022-10-26T16:28:07.255Z,52.90
2022-10-26T16:30:34.065Z,53.60
2022-10-26T16:33:00.654Z,53.00
2022-10-26T16:35:27.327Z,53.10
2022-10-26T16:37:53.893Z,53.10
2022-10-26T16:40:20.679Z,53.20
2022-10-26T16:42:47.395Z,53.20
2022-10-26T16:45:14.660Z,53.10
2022-10-26T16:47:41.316Z,53.30
2022-10-26T16:50:08.566Z,53.20
2022-10-26T16:52:35.340Z,53.30
2022-10-26T16:55:01.930Z,53.40
2022-10-26T16:57:28.553Z,53.40
2022-10-26T16:59:55.202Z,53.20
2022-10-26T17:02:21.977Z,53.10
2022-10-26T17:04:48.818Z,53.20
2022-10-26T17:07:15.430Z,53.20
2022-10-26T17:09:42.248Z,53.00
2022-10-26T17:12:11.048Z,52.40
2022-10-26T17:14:37.925Z,52.50
2022-10-26T17:17:04.519Z,52.40
2022-10-26T17:19:31.310Z,52.10
2022-10-26T17:21:59.131Z,52.70
2022-10-26T17:24:25.803Z,52.80
2022-10-26T17:26:52.477Z,52.90
2022-10-26T17:29:19.028Z,53.20
2022-10-26T17:31:45.670Z,53.40
2022-10-26T17:34:12.214Z,53.50
2022-10-26T17:36:38.918Z,53.50
2022-10-26T17:39:05.512Z,53.40
2022-10-26T17:41:32.203Z,53.40
2022-10-26T17:43:58.923Z,53.60
2022-10-26T17:46:25.911Z,53.60
2022-10-26T17:48:58.891Z,53.60
2022-10-26T17:51:25.850Z,53.70
2022-10-26T17:53:52.628Z,53.70
2022-10-26T17:56:20.102Z,53.80
2022-10-26T17:58:50.744Z,53.90
2022-10-26T18:01:17.453Z,53.90
2022-10-26T18:03:44.163Z,53.80
2022-10-26T18:06:10.874Z,54.00
2022-10-26T18:08:37.705Z,53.70
2022-10-26T18:11:04.579Z,53.80
2022-10-26T18:13:33.745Z,53.70
2022-10-26T18:16:07.408Z,53.50
2022-10-26T18:18:34.131Z,53.10
2022-10-26T18:21:01.438Z,53.20
2022-10-26T18:23:28.001Z,53.00
2022-10-26T18:26:01.752Z,53.10
2022-10-26T18:28:28.472Z,53.10
2022-10-26T18:30:59.535Z,53.20
2022-10-26T18:33:26.123Z,53.30
2022-10-26T18:35:52.781Z,53.30
2022-10-26T18:38:19.403Z,53.30
2022-10-26T18:40:51.347Z,53.40
2022-10-26T18:43:17.897Z,53.40
2022-10-26T18:45:44.634Z,53.40
2022-10-26T18:48:11.289Z,53.40
2022-10-26T18:50:38.174Z,53.50
2022-10-26T18:53:07.007Z,53.50
2022-10-26T18:55:33.729Z,53.60
2022-10-26T18:58:00.309Z,53.60
2022-10-26T19:00:26.952Z,53.60
2022-10-26T19:02:53.958Z,53.70
2022-10-26T19:05:20.984Z,53.80
2022-10-26T19:07:47.552Z,53.70
2022-10-26T19:10:14.182Z,53.80
2022-10-26T19:12:40.899Z,53.80
2022-10-26T19:15:07.623Z,53.90
2022-10-26T19:17:34.181Z,53.90
2022-10-26T19:20:00.948Z,53.90
2022-10-26T19:22:27.513Z,54.00
2022-10-26T19:24:54.181Z,54.00
2022-10-26T19:27:20.734Z,54.00
2022-10-26T19:29:47.275Z,54.00
2022-10-26T19:32:13.805Z,54.10
2022-10-26T19:34:40.408Z,54.10
2022-10-26T19:37:07.269Z,54.00
2022-10-26T19:39:33.817Z,54.00
2022-10-26T19:42:00.354Z,53.90
2022-10-26T19:44:26.978Z,54.00
2022-10-26T19:46:53.562Z,53.70
2022-10-26T19:49:20.505Z,53.40
2022-10-26T19:51:48.268Z,53.30
2022-10-26T19:54:14.832Z,53.10
2022-10-26T19:56:43.791Z,52.60
2022-10-26T19:59:10.381Z,52.40
2022-10-26T20:01:37.070Z,52.50
2022-10-26T20:04:04.180Z,52.60
2022-10-26T20:06:31.101Z,52.80
2022-10-26T20:08:57.931Z,52.80
2022-10-26T20:11:24.653Z,52.80
2022-10-26T20:13:51.267Z,52.80
2022-10-26T20:16:17.899Z,52.90
2022-10-26T20:18:47.892Z,52.80
2022-10-26T20:21:15.756Z,52.90
2022-10-26T20:23:42.694Z,52.90
2022-10-26T20:26:09.346Z,52.90
2022-10-26T20:28:35.915Z,53.60
2022-10-26T20:31:02.485Z,53.00
2022-10-26T20:33:29.080Z,53.00
2022-10-26T20:35:59.059Z,53.10
2022-10-26T20:38:25.905Z,53.00
2022-10-26T20:40:56.234Z,53.00
2022-10-26T20:43:23.051Z,53.00
2022-10-26T20:45:49.743Z,53.00
2022-10-26T20:48:17.968Z,53.00
2022-10-26T20:50:46.699Z,53.00
2022-10-26T20:53:30.622Z,53.10
2022-10-26T20:55:58.350Z,53.00
2022-10-26T20:58:37.247Z,53.10
2022-10-26T21:01:05.194Z,53.10
2022-10-26T21:03:31.827Z,53.10
2022-10-26T21:05:58.437Z,53.10
2022-10-26T21:08:24.997Z,53.70
2022-10-26T21:10:51.733Z,53.10
2022-10-26T21:13:18.325Z,53.00
2022-10-26T21:15:44.867Z,53.10
2022-10-26T21:18:11.491Z,53.00
2022-10-26T21:20:38.043Z,53.00
2022-10-26T21:23:04.600Z,53.00
2022-10-26T21:25:31.248Z,53.10
2022-10-26T21:27:57.834Z,53.00
2022-10-26T21:30:24.792Z,52.90
2022-10-26T21:32:51.878Z,52.70
2022-10-26T21:35:18.573Z,52.60
2022-10-26T21:37:45.242Z,52.10
2022-10-26T21:40:12.020Z,52.20
2022-10-26T21:42:38.569Z,51.80
2022-10-26T21:45:05.520Z,51.80
2022-10-26T21:47:32.067Z,52.50
2022-10-26T21:49:58.853Z,52.00
2022-10-26T21:52:25.408Z,52.20
2022-10-26T21:54:51.993Z,52.10
2022-10-26T21:57:18.545Z,52.00
2022-10-26T21:59:45.177Z,52.00
2022-10-26T22:02:11.938Z,52.00
2022-10-26T22:04:38.711Z,52.10
2022-10-26T22:07:05.323Z,52.30
2022-10-26T22:09:37.277Z,52.30
2022-10-26T22:12:11.493Z,52.40
2022-10-26T22:14:38.048Z,52.50
2022-10-26T22:17:04.628Z,52.60
2022-10-26T22:19:31.270Z,52.50
2022-10-26T22:22:00.511Z,52.50
2022-10-26T22:24:27.064Z,52.50
2022-10-26T22:26:53.627Z,52.50
2022-10-26T22:29:20.172Z,52.50
2022-10-26T22:31:46.860Z,52.60
2022-10-26T22:34:14.690Z,52.50
2022-10-26T22:36:41.331Z,52.50
2022-10-26T22:39:07.960Z,52.60
2022-10-26T22:41:34.589Z,52.60
2022-10-26T22:44:01.366Z,52.60
2022-10-26T22:46:28.109Z,53.20
2022-10-26T22:48:55.036Z,52.70
2022-10-26T22:51:21.954Z,52.70
2022-10-26T22:53:54.899Z,52.60
2022-10-26T22:56:21.753Z,52.80
2022-10-26T22:58:48.409Z,52.70
2022-10-26T23:01:15.886Z,52.70
2022-10-26T23:03:44.628Z,52.70
2022-10-26T23:06:14.953Z,52.70
2022-10-26T23:08:41.695Z,52.80
2022-10-26T23:11:09.074Z,52.70
2022-10-26T23:13:35.624Z,52.70
2022-10-26T23:16:08.795Z,52.80
2022-10-26T23:18:35.400Z,52.80
2022-10-26T23:21:02.070Z,52.60
2022-10-26T23:23:28.615Z,52.40
2022-10-26T23:25:59.116Z,52.00
2022-10-26T23:28:25.671Z,52.00
2022-10-26T23:30:52.243Z,51.60
2022-10-26T23:33:18.778Z,51.30
2022-10-26T23:35:47.651Z,51.40
2022-10-26T23:38:14.200Z,51.50
2022-10-26T23:40:40.769Z,51.60
2022-10-26T23:43:07.334Z,51.50
2022-10-26T23:45:33.877Z,51.80
2022-10-26T23:48:00.449Z,51.80
2022-10-26T23:50:27.000Z,51.90
2022-10-26T23:52:53.548Z,52.00
2022-10-26T23:55:20.139Z,52.00
2022-10-26T23:57:46.700Z,51.90
